createdAt,value
2022-10-16T00:01:45.456Z,91.93
2022-10-16T00:04:14.563Z,91.65
2022-10-16T00:06:41.640Z,92.86
2022-10-16T00:09:13.053Z,92.56
2022-10-16T00:11:41.732Z,92.60
2022-10-16T00:14:13.729Z,92.69
2022-10-16T00:16:41.075Z,94.04
2022-10-16T00:19:07.983Z,93.33
2022-10-16T00:21:35.273Z,93.24
2022-10-16T00:24:06.669Z,93.91
2022-10-16T00:26:35.685Z,94.80
2022-10-16T00:29:08.782Z,94.60
2022-10-16T00:31:36.131Z,94.11
2022-10-16T00:34:03.540Z,92.70
2022-10-16T00:36:33.172Z,92.51
2022-10-16T00:39:03.049Z,91.71
2022-10-16T00:41:31.659Z,92.07
2022-10-16T00:44:01.665Z,91.82
2022-10-16T00:46:44.173Z,91.78
2022-10-16T00:49:22.025Z,92.79
2022-10-16T00:51:51.913Z,92.88
2022-10-16T00:54:31.132Z,93.37
2022-10-16T00:57:05.749Z,93.08
2022-10-16T00:59:38.837Z,91.89
2022-10-16T01:02:14.594Z,91.18
2022-10-16T01:04:48.656Z,91.86
2022-10-16T01:07:55.250Z,91.54
2022-10-16T01:10:35.982Z,92.20
2022-10-16T01:13:28.991Z,92.57
2022-10-16T01:16:26.545Z,91.75
2022-10-16T01:19:04.542Z,90.27
2022-10-16T01:21:40.206Z,90.74
2022-10-16T01:24:28.510Z,89.62
2022-10-16T01:27:26.764Z,89.84
2022-10-16T01:30:06.178Z,90.23
2022-10-16T01:32:44.612Z,88.88
2022-10-16T01:35:48.394Z,89.61
2022-10-16T01:38:29.685Z,89.01
2022-10-16T01:41:07.797Z,88.88
2022-10-16T01:43:59.630Z,88.89
2022-10-16T01:46:27.696Z,88.65
2022-10-16T01:48:56.258Z,87.34
2022-10-16T01:51:24.740Z,87.16
2022-10-16T01:53:58.129Z,87.62
2022-10-16T01:56:29.217Z,87.16
2022-10-16T01:59:05.262Z,87.28
2022-10-16T02:01:36.542Z,86.88
2022-10-16T02:04:16.017Z,87.72
2022-10-16T02:06:45.126Z,86.80
2022-10-16T02:09:12.186Z,87.04
2022-10-16T02:11:41.577Z,86.93
2022-10-16T02:14:08.591Z,86.94
2022-10-16T02:16:45.098Z,85.97
2022-10-16T02:19:16.766Z,85.73
2022-10-16T02:21:59.586Z,84.40
2022-10-16T02:24:41.210Z,84.58
2022-10-16T02:27:38.929Z,84.92
2022-10-16T02:30:18.369Z,84.01
2022-10-16T02:32:49.019Z,84.09
2022-10-16T02:35:20.331Z,83.96
2022-10-16T02:37:52.669Z,83.98
2022-10-16T02:40:22.865Z,84.21
2022-10-16T02:42:54.814Z,84.18
2022-10-16T02:45:25.120Z,83.65
2022-10-16T02:47:54.492Z,84.97
2022-10-16T02:50:21.582Z,83.81
2022-10-16T02:52:51.569Z,83.09
2022-10-16T02:55:18.848Z,83.05
2022-10-16T02:57:45.780Z,83.65
2022-10-16T03:00:16.443Z,84.43
2022-10-16T03:02:45.875Z,83.89
2022-10-16T03:05:15.054Z,84.94
2022-10-16T03:07:41.953Z,83.91
2022-10-16T03:10:12.559Z,83.88
2022-10-16T03:12:39.439Z,84.67
2022-10-16T03:15:09.198Z,85.19
2022-10-16T03:17:39.043Z,85.05
2022-10-16T03:20:06.510Z,85.54
2022-10-16T03:22:36.759Z,85.49
2022-10-16T03:25:04.048Z,85.97
2022-10-16T03:27:32.976Z,85.70
2022-10-16T03:29:59.815Z,85.72
2022-10-16T03:32:31.342Z,84.75
2022-10-16T03:34:58.240Z,85.84
2022-10-16T03:37:25.853Z,85.84
2022-10-16T03:39:55.877Z,86.10
2022-10-16T03:42:27.364Z,85.44
2022-10-16T03:44:56.615Z,85.73
2022-10-16T03:47:24.923Z,85.38
2022-10-16T03:49:52.089Z,85.09
2022-10-16T03:54:55.239Z,84.77
2022-10-16T03:57:22.156Z,84.88
2022-10-16T03:59:49.025Z,85.04
2022-10-16T04:02:17.941Z,84.59
2022-10-16T04:04:46.872Z,84.81
2022-10-16T04:07:13.696Z,84.53
2022-10-16T04:09:40.545Z,84.53
2022-10-16T04:12:10.392Z,83.03
2022-10-16T04:14:37.291Z,84.11
2022-10-16T04:17:04.140Z,85.18
2022-10-16T04:19:33.476Z,84.59
2022-10-16T04:22:00.449Z,83.71
2022-10-16T04:24:29.317Z,85.11
2022-10-16T04:26:56.133Z,85.06
2022-10-16T04:29:23.024Z,85.18
2022-10-16T04:31:54.875Z,84.90
2022-10-16T04:34:21.806Z,85.69
2022-10-16T04:36:51.229Z,85.55
2022-10-16T04:39:20.400Z,86.12
2022-10-16T04:41:47.215Z,85.70
2022-10-16T04:44:14.137Z,85.79
2022-10-16T04:46:40.980Z,87.63
2022-10-16T04:49:07.784Z,87.47
2022-10-16T04:51:37.342Z,87.32
2022-10-16T04:54:06.476Z,87.90
2022-10-16T04:56:33.532Z,88.10
2022-10-16T04:59:00.379Z,88.24
2022-10-16T05:01:29.842Z,89.09
2022-10-16T05:03:59.704Z,89.12
2022-10-16T05:06:26.712Z,88.29
2022-10-16T05:08:56.008Z,88.18
2022-10-16T05:11:22.873Z,89.59
2022-10-16T05:13:55.848Z,89.04
2022-10-16T05:16:22.978Z,89.96
2022-10-16T05:18:52.995Z,89.86
2022-10-16T05:21:20.777Z,89.59
2022-10-16T05:23:47.685Z,90.35
2022-10-16T05:26:14.872Z,90.26
2022-10-16T05:28:44.173Z,91.13
2022-10-16T05:31:14.691Z,90.77
2022-10-16T05:33:41.726Z,89.47
2022-10-16T05:36:11.192Z,89.32
2022-10-16T05:38:39.002Z,89.37
2022-10-16T05:41:06.397Z,89.48
2022-10-16T05:43:36.733Z,88.90
2022-10-16T05:46:07.324Z,88.00
2022-10-16T05:48:34.581Z,87.52
2022-10-16T05:51:36.061Z,89.96
2022-10-16T05:54:04.988Z,90.61
2022-10-16T05:56:32.022Z,88.83
2022-10-16T05:59:01.746Z,89.38
2022-10-16T06:01:28.619Z,89.27
2022-10-16T06:03:55.643Z,88.06
2022-10-16T06:06:30.584Z,87.84
2022-10-16T06:08:58.513Z,89.42
2022-10-16T06:11:32.624Z,89.18
2022-10-16T06:14:08.020Z,89.31
2022-10-16T06:16:39.802Z,88.10
2022-10-16T06:19:09.312Z,88.05
2022-10-16T06:21:36.911Z,87.40
2022-10-16T06:24:08.424Z,87.17
2022-10-16T06:26:38.158Z,88.13
2022-10-16T06:29:06.097Z,87.47
2022-10-16T06:31:34.672Z,88.22
2022-10-16T06:34:07.536Z,88.08
2022-10-16T06:36:34.732Z,87.28
2022-10-16T06:39:05.259Z,88.52
2022-10-16T06:41:40.610Z,87.45
2022-10-16T06:44:11.055Z,88.39
2022-10-16T06:46:38.370Z,88.35
2022-10-16T06:49:08.290Z,87.56
2022-10-16T06:51:40.495Z,88.71
2022-10-16T06:54:16.469Z,87.39
2022-10-16T06:56:43.976Z,86.70
2022-10-16T06:59:11.406Z,86.20
2022-10-16T07:01:38.737Z,86.13
2022-10-16T07:04:08.360Z,85.86
2022-10-16T07:06:41.486Z,86.88
2022-10-16T07:09:14.870Z,87.08
2022-10-16T07:11:42.448Z,87.30
2022-10-16T07:14:22.444Z,87.26
2022-10-16T07:16:52.826Z,86.87
2022-10-16T07:19:31.852Z,80.16
2022-10-16T07:22:04.425Z,77.28
2022-10-16T07:24:32.197Z,74.37
2022-10-16T07:27:04.561Z,68.60
2022-10-16T07:29:40.215Z,66.44
2022-10-16T07:32:12.826Z,67.49
2022-10-16T07:34:40.615Z,67.35
2022-10-16T07:37:07.852Z,67.54
2022-10-16T07:39:35.203Z,68.33
2022-10-16T07:42:07.196Z,68.02
2022-10-16T07:44:34.272Z,63.69
2022-10-16T07:47:06.064Z,63.10
2022-10-16T07:49:36.301Z,56.50
2022-10-16T07:52:05.209Z,55.29
2022-10-16T07:54:32.341Z,52.83
2022-10-16T07:57:09.801Z,49.07
2022-10-16T07:59:42.583Z,50.18
2022-10-16T08:02:09.952Z,51.27
2022-10-16T08:04:40.042Z,49.45
2022-10-16T08:07:14.044Z,50.31
2022-10-16T08:09:43.708Z,49.69
2022-10-16T08:12:12.054Z,51.15
2022-10-16T08:14:47.893Z,52.46
2022-10-16T08:17:17.803Z,46.77
2022-10-16T08:19:55.185Z,50.80
2022-10-16T08:22:24.598Z,55.22
2022-10-16T08:24:51.710Z,57.83
2022-10-16T08:27:18.985Z,61.73
2022-10-16T08:29:52.697Z,64.05
2022-10-16T08:32:27.555Z,61.15
2022-10-16T08:34:54.980Z,58.80
2022-10-16T08:37:31.208Z,56.56
2022-10-16T08:39:58.276Z,51.59
2022-10-16T08:42:45.909Z,47.65
2022-10-16T08:45:36.326Z,51.17
2022-10-16T08:48:27.225Z,51.42
2022-10-16T08:50:55.556Z,53.07
2022-10-16T08:53:34.323Z,53.38
2022-10-16T08:56:04.265Z,53.61
2022-10-16T08:58:36.268Z,53.17
2022-10-16T09:01:18.019Z,50.38
2022-10-16T09:04:46.090Z,47.83
2022-10-16T09:07:29.573Z,45.25
2022-10-16T09:11:17.152Z,43.83
2022-10-16T09:14:13.637Z,39.98
2022-10-16T09:16:54.469Z,42.08
2022-10-16T09:19:42.405Z,43.17
2022-10-16T09:22:19.689Z,41.88
2022-10-16T09:24:46.949Z,43.22
2022-10-16T09:27:18.472Z,38.80
2022-10-16T09:29:50.185Z,40.09
2022-10-16T09:32:22.335Z,39.31
2022-10-16T09:34:57.535Z,39.50
2022-10-16T09:37:38.557Z,41.26
2022-10-16T09:40:07.738Z,38.61
2022-10-16T09:42:38.131Z,37.61
2022-10-16T09:45:06.501Z,33.04
2022-10-16T09:47:41.348Z,35.50
2022-10-16T09:50:31.148Z,35.56
2022-10-16T09:53:15.701Z,37.25
2022-10-16T09:55:56.134Z,38.72
2022-10-16T09:58:24.777Z,37.72
2022-10-16T10:00:55.807Z,37.31
2022-10-16T10:03:41.200Z,34.95
2022-10-16T10:06:26.787Z,33.93
2022-10-16T10:09:05.897Z,32.62
2022-10-16T10:11:43.931Z,31.30
2022-10-16T10:14:24.987Z,29.21
2022-10-16T10:17:03.509Z,29.75
2022-10-16T10:19:38.390Z,31.58
2022-10-16T10:22:59.133Z,33.02
2022-10-16T10:26:02.639Z,31.33
2022-10-16T10:28:51.330Z,29.76
2022-10-16T10:31:24.654Z,28.54
2022-10-16T10:34:25.215Z,30.58
2022-10-16T10:37:20.320Z,29.91
2022-10-16T10:40:33.679Z,28.62
2022-10-16T10:43:49.177Z,30.73
2022-10-16T10:47:03.980Z,29.34
2022-10-16T10:50:01.789Z,32.51
2022-10-16T10:53:18.900Z,32.39
2022-10-16T10:56:26.671Z,30.05
2022-10-16T10:59:28.583Z,28.44
2022-10-16T11:02:02.045Z,28.30
2022-10-16T11:04:46.250Z,35.10
2022-10-16T11:07:26.572Z,33.24
2022-10-16T11:10:16.874Z,28.57
2022-10-16T11:12:54.804Z,26.77
2022-10-16T11:15:35.674Z,25.80
2022-10-16T11:18:27.573Z,25.07
2022-10-16T11:21:17.446Z,27.86
2022-10-16T11:24:04.286Z,30.23
2022-10-16T11:26:41.115Z,33.22
2022-10-16T11:29:19.440Z,32.33
2022-10-16T11:32:01.125Z,34.05
2022-10-16T11:34:49.640Z,36.16
2022-10-16T11:37:23.071Z,35.34
2022-10-16T11:39:55.589Z,35.96
2022-10-16T11:42:49.866Z,32.76
2022-10-16T11:45:28.682Z,31.85
2022-10-16T11:48:24.605Z,32.55
2022-10-16T11:51:06.645Z,34.47
2022-10-16T11:54:02.687Z,34.01
2022-10-16T11:56:34.579Z,34.02
2022-10-16T11:59:18.659Z,33.77
2022-10-16T12:02:09.651Z,31.86
2022-10-16T12:05:16.363Z,29.43
2022-10-16T12:07:59.102Z,32.32
2022-10-16T12:10:32.660Z,32.47
2022-10-16T12:13:03.003Z,34.95
2022-10-16T12:18:27.457Z,36.39
2022-10-16T12:21:06.990Z,32.36
2022-10-16T12:23:39.716Z,30.82
2022-10-16T12:26:07.121Z,30.37
2022-10-16T12:28:35.180Z,32.46
2022-10-16T12:31:09.430Z,30.27
2022-10-16T12:33:57.983Z,31.04
2022-10-16T12:36:34.379Z,32.71
2022-10-16T12:39:04.207Z,32.83
2022-10-16T12:41:40.899Z,39.23
2022-10-16T12:44:33.681Z,42.15
2022-10-16T12:47:00.942Z,38.93
2022-10-16T12:49:42.119Z,36.06
2022-10-16T12:52:36.206Z,34.31
2022-10-16T12:55:03.471Z,31.42
2022-10-16T12:57:58.678Z,32.14
2022-10-16T13:00:37.231Z,29.93
2022-10-16T13:03:16.273Z,28.51
2022-10-16T13:06:07.899Z,29.32
2022-10-16T13:09:03.197Z,28.91
2022-10-16T13:12:11.348Z,28.49
2022-10-16T13:15:03.100Z,32.91
2022-10-16T13:18:11.247Z,35.94
2022-10-16T13:21:17.454Z,37.60
2022-10-16T13:24:09.246Z,34.43
2022-10-16T13:27:01.924Z,32.66
2022-10-16T13:29:35.142Z,30.13
2022-10-16T13:32:15.624Z,29.42
2022-10-16T13:34:50.456Z,28.89
2022-10-16T13:37:26.276Z,31.69
2022-10-16T13:40:18.438Z,36.29
2022-10-16T13:42:45.365Z,36.16
2022-10-16T13:45:22.039Z,38.39
2022-10-16T13:47:48.995Z,39.07
2022-10-16T13:50:24.710Z,35.51
2022-10-16T13:53:07.386Z,31.69
2022-10-16T13:55:34.784Z,31.37
2022-10-16T13:58:15.767Z,29.92
2022-10-16T14:01:02.051Z,28.63
2022-10-16T14:03:31.196Z,29.46
2022-10-16T14:06:03.023Z,30.52
2022-10-16T14:08:33.131Z,30.44
2022-10-16T14:11:03.483Z,31.40
2022-10-16T14:13:48.010Z,32.59
2022-10-16T14:16:22.052Z,32.31
2022-10-16T14:19:01.069Z,33.15
2022-10-16T14:21:30.838Z,32.35
2022-10-16T14:24:02.697Z,33.22
2022-10-16T14:26:48.196Z,33.64
2022-10-16T14:29:21.741Z,32.91
2022-10-16T14:32:03.732Z,32.27
2022-10-16T14:34:41.415Z,32.31
2022-10-16T14:37:33.430Z,35.17
2022-10-16T14:40:02.597Z,33.69
2022-10-16T14:42:29.596Z,33.37
2022-10-16T14:44:59.189Z,32.12
2022-10-16T14:47:27.926Z,31.46
2022-10-16T14:49:59.974Z,31.08
2022-10-16T14:52:26.952Z,32.63
2022-10-16T14:54:57.394Z,33.00
2022-10-16T14:57:36.768Z,32.67
2022-10-16T15:00:05.035Z,32.97
2022-10-16T15:02:39.708Z,33.57
2022-10-16T15:05:25.613Z,34.70
2022-10-16T15:07:56.073Z,34.71
2022-10-16T15:10:26.381Z,33.99
2022-10-16T15:12:53.583Z,35.38
2022-10-16T15:15:41.441Z,36.75
2022-10-16T15:18:08.482Z,37.56
2022-10-16T15:20:39.659Z,36.18
2022-10-16T15:23:18.926Z,39.18
2022-10-16T15:25:54.814Z,40.66
2022-10-16T15:28:28.298Z,41.92
2022-10-16T15:30:58.175Z,42.45
2022-10-16T15:33:37.277Z,42.24
2022-10-16T15:36:07.372Z,43.52
2022-10-16T15:38:36.810Z,44.60
2022-10-16T15:41:06.165Z,44.84
2022-10-16T15:43:35.220Z,45.40
2022-10-16T15:46:06.998Z,45.46
2022-10-16T15:48:34.380Z,45.84
2022-10-16T15:51:06.374Z,46.10
2022-10-16T15:53:38.224Z,46.27
2022-10-16T15:56:12.327Z,47.67
2022-10-16T15:58:39.368Z,48.03
2022-10-16T16:01:07.004Z,48.23
2022-10-16T16:03:34.143Z,48.71
2022-10-16T16:06:06.966Z,49.33
2022-10-16T16:08:34.963Z,49.54
2022-10-16T16:11:17.116Z,49.06
2022-10-16T16:13:44.326Z,49.40
2022-10-16T16:16:16.498Z,49.47
2022-10-16T16:18:43.993Z,49.83
2022-10-16T16:21:12.600Z,49.84
2022-10-16T16:23:41.869Z,50.79
2022-10-16T16:26:13.107Z,50.56
2022-10-16T16:28:44.230Z,51.32
2022-10-16T16:31:13.800Z,51.78
2022-10-16T16:33:40.628Z,51.78
2022-10-16T16:36:11.603Z,51.52
2022-10-16T16:38:41.500Z,52.21
2022-10-16T16:41:16.863Z,52.44
2022-10-16T16:43:44.034Z,52.82
2022-10-16T16:46:13.612Z,52.72
2022-10-16T16:48:41.339Z,52.97
2022-10-16T16:51:18.574Z,53.89
2022-10-16T16:53:50.804Z,53.32
2022-10-16T16:56:25.943Z,53.50
2022-10-16T16:58:56.081Z,53.84
2022-10-16T17:01:28.273Z,53.61
2022-10-16T17:04:02.243Z,54.38
2022-10-16T17:06:33.237Z,55.19
2022-10-16T17:09:03.840Z,55.72
2022-10-16T17:11:31.167Z,55.73
2022-10-16T17:14:00.182Z,56.25
2022-10-16T17:16:34.943Z,57.26
2022-10-16T17:19:05.583Z,57.11
2022-10-16T17:21:33.074Z,57.76
2022-10-16T17:24:03.248Z,58.11
2022-10-16T17:26:31.138Z,59.44
2022-10-16T17:29:01.365Z,59.40
2022-10-16T17:31:35.236Z,59.40
2022-10-16T17:34:09.154Z,60.01
2022-10-16T17:36:37.814Z,61.71
2022-10-16T17:39:08.073Z,62.13
2022-10-16T17:41:56.610Z,62.49
2022-10-16T17:44:26.926Z,62.42
2022-10-16T17:46:54.642Z,62.13
2022-10-16T17:49:26.091Z,62.50
2022-10-16T17:51:53.964Z,63.54
2022-10-16T17:54:21.281Z,64.80
2022-10-16T17:56:48.700Z,63.63
2022-10-16T17:59:17.729Z,64.28
2022-10-16T18:01:46.227Z,63.90
2022-10-16T18:04:19.066Z,64.25
2022-10-16T18:06:47.366Z,65.77
2022-10-16T18:09:18.969Z,66.09
2022-10-16T18:11:46.310Z,65.95
2022-10-16T18:14:16.589Z,66.15
2022-10-16T18:16:44.362Z,65.89
2022-10-16T18:19:14.325Z,65.81
2022-10-16T18:21:41.354Z,66.48
2022-10-16T18:24:09.813Z,67.04
2022-10-16T18:26:36.976Z,66.68
2022-10-16T18:29:04.945Z,66.97
2022-10-16T18:31:37.755Z,67.17
2022-10-16T18:34:08.005Z,67.54
2022-10-16T18:36:37.891Z,67.50
2022-10-16T18:39:09.501Z,67.75
2022-10-16T18:41:41.614Z,68.01
2022-10-16T18:44:11.724Z,68.70
2022-10-16T18:46:39.307Z,69.14
2022-10-16T18:49:06.826Z,70.52
2022-10-16T18:51:42.257Z,71.00
2022-10-16T18:54:12.096Z,71.54
2022-10-16T18:56:41.618Z,72.03
2022-10-16T18:59:10.291Z,71.67
2022-10-16T19:01:43.473Z,71.75
2022-10-16T19:04:18.108Z,72.74
2022-10-16T19:06:58.573Z,72.27
2022-10-16T19:09:25.700Z,72.76
2022-10-16T19:11:54.811Z,73.58
2022-10-16T19:14:26.259Z,74.08
2022-10-16T19:16:56.101Z,73.15
2022-10-16T19:19:25.947Z,72.81
2022-10-16T19:22:01.150Z,72.92
2022-10-16T19:24:35.103Z,72.80
2022-10-16T19:27:04.165Z,72.95
2022-10-16T19:29:31.032Z,73.89
2022-10-16T19:31:58.440Z,75.38
2022-10-16T19:34:28.427Z,74.69
2022-10-16T19:36:55.372Z,73.64
2022-10-16T19:39:23.695Z,74.27
2022-10-16T19:41:55.179Z,75.74
2022-10-16T19:44:25.510Z,75.45
2022-10-16T19:46:52.331Z,75.71
2022-10-16T19:49:22.066Z,75.54
2022-10-16T19:51:51.616Z,75.85
2022-10-16T19:54:18.824Z,75.24
2022-10-16T19:56:45.623Z,76.67
2022-10-16T19:59:16.182Z,77.23
2022-10-16T20:01:45.419Z,76.92
2022-10-16T20:04:20.013Z,76.48
2022-10-16T20:06:52.289Z,75.39
2022-10-16T20:09:19.163Z,74.73
2022-10-16T20:11:45.961Z,74.92
2022-10-16T20:14:17.903Z,74.72
2022-10-16T20:16:49.722Z,76.01
2022-10-16T20:19:16.601Z,75.63
2022-10-16T20:21:46.033Z,76.50
2022-10-16T20:24:12.909Z,77.70
2022-10-16T20:26:39.889Z,78.21
2022-10-16T20:29:07.174Z,77.11
2022-10-16T20:31:34.795Z,75.93
2022-10-16T20:34:08.893Z,76.66
2022-10-16T20:36:38.506Z,76.11
2022-10-16T20:39:09.292Z,77.46
2022-10-16T20:41:36.735Z,77.20
2022-10-16T20:44:03.977Z,76.94
2022-10-16T20:46:30.876Z,76.70
2022-10-16T20:49:10.588Z,77.20
2022-10-16T20:51:38.545Z,76.60
2022-10-16T20:54:09.207Z,76.08
2022-10-16T20:56:37.461Z,76.14
2022-10-16T20:59:07.073Z,76.43
2022-10-16T21:01:37.632Z,78.73
2022-10-16T21:04:11.131Z,77.41
2022-10-16T21:06:39.593Z,76.78
2022-10-16T21:09:11.639Z,76.37
2022-10-16T21:11:38.940Z,76.27
2022-10-16T21:14:08.015Z,77.20
2022-10-16T21:16:35.446Z,78.17
2022-10-16T21:19:02.336Z,78.89
2022-10-16T21:21:33.353Z,78.67
2022-10-16T21:24:00.878Z,79.03
2022-10-16T21:26:29.401Z,79.75
2022-10-16T21:28:59.832Z,78.44
2022-10-16T21:31:29.283Z,78.41
2022-10-16T21:33:56.591Z,79.13
2022-10-16T21:36:31.726Z,78.99
2022-10-16T21:39:14.118Z,79.13
2022-10-16T21:41:47.438Z,80.51
2022-10-16T21:44:15.564Z,80.22
2022-10-16T21:46:44.542Z,79.31
2022-10-16T21:49:18.334Z,78.64
2022-10-16T21:51:50.005Z,79.40
2022-10-16T21:54:22.776Z,79.08
2022-10-16T21:56:52.972Z,77.77
2022-10-16T21:59:22.367Z,78.55
2022-10-16T22:01:52.445Z,78.99
2022-10-16T22:04:19.353Z,79.00
2022-10-16T22:06:46.623Z,79.02
2022-10-16T22:09:15.076Z,79.65
2022-10-16T22:11:44.541Z,79.53
2022-10-16T22:14:17.767Z,78.39
2022-10-16T22:16:47.531Z,77.04
2022-10-16T22:19:17.785Z,76.98
2022-10-16T22:21:47.072Z,78.14
2022-10-16T22:24:18.571Z,78.53
2022-10-16T22:26:45.777Z,77.94
2022-10-16T22:29:14.260Z,77.78
2022-10-16T22:31:41.360Z,77.47
2022-10-16T22:34:13.855Z,77.59
2022-10-16T22:36:40.995Z,76.95
2022-10-16T22:39:07.892Z,78.12
2022-10-16T22:41:34.744Z,78.34
2022-10-16T22:44:04.515Z,78.50
2022-10-16T22:46:31.775Z,78.28
2022-10-16T22:48:58.699Z,78.77
2022-10-16T22:51:27.736Z,78.83
2022-10-16T22:53:58.178Z,78.88
2022-10-16T22:56:25.426Z,79.04
2022-10-16T22:58:52.320Z,78.96
2022-10-16T23:01:29.123Z,80.25
2022-10-16T23:04:01.160Z,79.75
2022-10-16T23:06:31.309Z,77.55
2022-10-16T23:09:04.879Z,77.62
2022-10-16T23:11:34.309Z,77.37
2022-10-16T23:14:04.197Z,77.31
2022-10-16T23:16:33.617Z,78.60
2022-10-16T23:19:00.745Z,77.70
2022-10-16T23:21:27.636Z,78.17
2022-10-16T23:23:59.096Z,77.75
2022-10-16T23:26:27.205Z,76.56
2022-10-16T23:28:57.532Z,77.24
2022-10-16T23:31:27.755Z,76.91
2022-10-16T23:33:56.860Z,77.56
2022-10-16T23:36:26.551Z,78.11
2022-10-16T23:38:58.198Z,78.44
2022-10-16T23:41:25.251Z,77.24
2022-10-16T23:43:52.600Z,75.37
2022-10-16T23:46:22.304Z,76.10
2022-10-16T23:48:49.265Z,75.17
2022-10-16T23:51:16.293Z,75.75
2022-10-16T23:53:43.569Z,75.77
2022-10-16T23:56:13.783Z,76.57
2022-10-16T23:58:40.838Z,77.51
